sensor_id;sensor_type;location;lat;lon;timestamp;pressure;altitude;pressure_sealevel;temperature;humidity
59789;BME280;47353;51.614;5.530;2023-04-20T00:01:01;102165.09;;;6.88;38.60
59789;BME280;47353;51.614;5.530;2023-04-20T00:03:26;102169.78;;;6.88;38.34
59789;BME280;47353;51.614;5.530;2023-04-20T00:05:52;102161.34;;;6.82;38.64
59789;BME280;47353;51.614;5.530;2023-04-20T00:08:18;102154.38;;;6.80;38.53
59789;BME280;47353;51.614;5.530;2023-04-20T00:10:44;102158.81;;;6.74;38.47
59789;BME280;47353;51.614;5.530;2023-04-20T00:13:10;102154.84;;;6.70;38.64
59789;BME280;47353;51.614;5.530;2023-04-20T00:15:35;102155.94;;;6.63;38.97
59789;BME280;47353;51.614;5.530;2023-04-20T00:18:01;102148.34;;;6.58;39.23
59789;BME280;47353;51.614;5.530;2023-04-20T00:20:26;102143.44;;;6.60;39.47
59789;BME280;47353;51.614;5.530;2023-04-20T00:22:53;102133.31;;;6.54;39.66
59789;BME280;47353;51.614;5.530;2023-04-20T00:25:19;102135.88;;;6.49;39.54
59789;BME280;47353;51.614;5.530;2023-04-20T00:27:45;102122.78;;;6.45;39.32
59789;BME280;47353;51.614;5.530;2023-04-20T00:30:11;102131.09;;;6.38;40.25
59789;BME280;47353;51.614;5.530;2023-04-20T00:32:36;102126.00;;;6.35;39.92
59789;BME280;47353;51.614;5.530;2023-04-20T00:35:02;102121.59;;;6.28;40.42
59789;BME280;47353;51.614;5.530;2023-04-20T00:37:28;102121.44;;;6.23;41.27
59789;BME280;47353;51.614;5.530;2023-04-20T00:39:54;102120.81;;;6.14;41.41
59789;BME280;47353;51.614;5.530;2023-04-20T00:42:19;102114.50;;;6.07;42.34
59789;BME280;47353;51.614;5.530;2023-04-20T00:44:45;102112.84;;;6.00;42.54
59789;BME280;47353;51.614;5.530;2023-04-20T00:47:10;102107.13;;;5.95;42.78
59789;BME280;47353;51.614;5.530;2023-04-20T00:49:36;102081.38;;;5.70;43.21
59789;BME280;47353;51.614;5.530;2023-04-20T00:52:01;102103.38;;;5.83;43.66
59789;BME280;47353;51.614;5.530;2023-04-20T00:54:27;102098.94;;;5.75;43.30
59789;BME280;47353;51.614;5.530;2023-04-20T00:56:54;102089.41;;;5.71;43.24
59789;BME280;47353;51.614;5.530;2023-04-20T00:59:22;102087.97;;;5.62;44.63
59789;BME280;47353;51.614;5.530;2023-04-20T01:01:47;102077.63;;;5.58;44.04
59789;BME280;47353;51.614;5.530;2023-04-20T01:04:13;102082.69;;;5.54;44.91
59789;BME280;47353;51.614;5.530;2023-04-20T01:06:40;102074.66;;;5.53;44.69
59789;BME280;47353;51.614;5.530;2023-04-20T01:09:05;102067.06;;;5.48;45.67
59789;BME280;47353;51.614;5.530;2023-04-20T01:11:31;102062.44;;;5.42;45.58
59789;BME280;47353;51.614;5.530;2023-04-20T01:13:56;102064.97;;;5.37;45.87
59789;BME280;47353;51.614;5.530;2023-04-20T01:16:21;102052.72;;;5.33;46.86
59789;BME280;47353;51.614;5.530;2023-04-20T01:18:48;102048.50;;;5.31;46.47
59789;BME280;47353;51.614;5.530;2023-04-20T01:21:15;102045.34;;;5.27;47.14
59789;BME280;47353;51.614;5.530;2023-04-20T01:23:41;102031.19;;;5.17;47.94
59789;BME280;47353;51.614;5.530;2023-04-20T01:26:08;102036.91;;;5.22;47.49
59789;BME280;47353;51.614;5.530;2023-04-20T01:28:34;102030.56;;;5.22;47.01
59789;BME280;47353;51.614;5.530;2023-04-20T01:31:01;102019.81;;;5.20;47.67
59789;BME280;47353;51.614;5.530;2023-04-20T01:33:26;102015.59;;;5.18;47.49
59789;BME280;47353;51.614;5.530;2023-04-20T01:35:52;102023.59;;;5.12;47.72
59789;BME280;47353;51.614;5.530;2023-04-20T01:38:19;102021.50;;;5.14;48.30
59789;BME280;47353;51.614;5.530;2023-04-20T01:40:45;102015.81;;;5.16;48.27
59789;BME280;47353;51.614;5.530;2023-04-20T01:43:11;102012.22;;;5.15;47.98
59789;BME280;47353;51.614;5.530;2023-04-20T01:45:37;102003.16;;;5.15;48.78
59789;BME280;47353;51.614;5.530;2023-04-20T01:48:02;102006.28;;;5.12;48.41
59789;BME280;47353;51.614;5.530;2023-04-20T01:50:28;102000.41;;;5.08;49.02
59789;BME280;47353;51.614;5.530;2023-04-20T01:52:53;101990.91;;;5.04;49.14
59789;BME280;47353;51.614;5.530;2023-04-20T01:55:19;101990.06;;;4.97;49.69
59789;BME280;47353;51.614;5.530;2023-04-20T01:57:44;101994.31;;;4.93;49.86
59789;BME280;47353;51.614;5.530;2023-04-20T02:00:11;101978.06;;;4.85;50.16
59789;BME280;47353;51.614;5.530;2023-04-20T02:02:37;101988.19;;;4.85;50.67
59789;BME280;47353;51.614;5.530;2023-04-20T02:05:02;101978.28;;;4.77;50.99
59789;BME280;47353;51.614;5.530;2023-04-20T02:07:29;101986.06;;;4.80;50.96
59789;BME280;47353;51.614;5.530;2023-04-20T02:09:55;101985.41;;;4.72;51.34
59789;BME280;47353;51.614;5.530;2023-04-20T02:12:20;101978.47;;;4.69;51.48
59789;BME280;47353;51.614;5.530;2023-04-20T02:14:46;101980.56;;;4.67;51.91
59789;BME280;47353;51.614;5.530;2023-04-20T02:17:11;101982.50;;;4.67;52.20
59789;BME280;47353;51.614;5.530;2023-04-20T02:19:38;101971.94;;;4.64;52.58
59789;BME280;47353;51.614;5.530;2023-04-20T02:22:03;101967.91;;;4.60;53.38
59789;BME280;47353;51.614;5.530;2023-04-20T02:24:29;101975.13;;;4.61;53.09
59789;BME280;47353;51.614;5.530;2023-04-20T02:26:54;101979.53;;;4.62;53.84
59789;BME280;47353;51.614;5.530;2023-04-20T02:29:20;101973.19;;;4.61;54.32
59789;BME280;47353;51.614;5.530;2023-04-20T02:31:45;101972.78;;;4.64;53.51
59789;BME280;47353;51.614;5.530;2023-04-20T02:34:11;101960.56;;;4.67;53.84
59789;BME280;47353;51.614;5.530;2023-04-20T02:36:36;101975.31;;;4.66;54.04
59789;BME280;47353;51.614;5.530;2023-04-20T02:39:01;101964.34;;;4.66;54.10
59789;BME280;47353;51.614;5.530;2023-04-20T02:41:27;101959.06;;;4.64;54.88
59789;BME280;47353;51.614;5.530;2023-04-20T02:43:53;101952.75;;;4.64;55.29
59789;BME280;47353;51.614;5.530;2023-04-20T02:46:19;101945.56;;;4.63;56.32
59789;BME280;47353;51.614;5.530;2023-04-20T02:48:45;101943.66;;;4.63;55.93
59789;BME280;47353;51.614;5.530;2023-04-20T02:51:10;101930.59;;;4.59;56.85
59789;BME280;47353;51.614;5.530;2023-04-20T02:53:36;101942.22;;;4.61;57.12
59789;BME280;47353;51.614;5.530;2023-04-20T02:56:01;101938.19;;;4.63;56.96
59789;BME280;47353;51.614;5.530;2023-04-20T02:58:27;101936.91;;;4.66;57.18
59789;BME280;47353;51.614;5.530;2023-04-20T03:00:58;101933.13;;;4.67;57.55
59789;BME280;47353;51.614;5.530;2023-04-20T03:03:24;101933.13;;;4.67;57.52
59789;BME280;47353;51.614;5.530;2023-04-20T03:05:49;101928.69;;;4.66;58.10
59789;BME280;47353;51.614;5.530;2023-04-20T03:08:15;101925.13;;;4.65;58.50
59789;BME280;47353;51.614;5.530;2023-04-20T03:10:41;101923.84;;;4.68;59.21
59789;BME280;47353;51.614;5.530;2023-04-20T03:13:06;101924.91;;;4.73;59.64
59789;BME280;47353;51.614;5.530;2023-04-20T03:15:31;101919.19;;;4.81;59.84
59789;BME280;47353;51.614;5.530;2023-04-20T03:17:57;101917.91;;;4.90;60.08
59789;BME280;47353;51.614;5.530;2023-04-20T03:20:22;101909.44;;;4.98;60.23
59789;BME280;47353;51.614;5.530;2023-04-20T03:22:48;101907.13;;;5.08;60.28
59789;BME280;47353;51.614;5.530;2023-04-20T03:25:13;101904.56;;;5.13;61.11
59789;BME280;47353;51.614;5.530;2023-04-20T03:27:39;101908.31;;;5.26;60.30
59789;BME280;47353;51.614;5.530;2023-04-20T03:30:05;101906.38;;;5.33;60.49
59789;BME280;47353;51.614;5.530;2023-04-20T03:32:31;101903.41;;;5.41;60.68
59789;BME280;47353;51.614;5.530;2023-04-20T03:34:56;101899.34;;;5.50;61.24
59789;BME280;47353;51.614;5.530;2023-04-20T03:37:21;101897.84;;;5.54;60.24
59789;BME280;47353;51.614;5.530;2023-04-20T03:39:47;101888.53;;;5.61;60.69
59789;BME280;47353;51.614;5.530;2023-04-20T03:42:12;101884.91;;;5.67;60.98
59789;BME280;47353;51.614;5.530;2023-04-20T03:44:37;101880.88;;;5.70;60.47
59789;BME280;47353;51.614;5.530;2023-04-20T03:47:03;101892.47;;;5.78;60.50
59789;BME280;47353;51.614;5.530;2023-04-20T03:49:28;101885.47;;;5.82;60.57
59789;BME280;47353;51.614;5.530;2023-04-20T03:51:54;101878.25;;;5.88;60.30
59789;BME280;47353;51.614;5.530;2023-04-20T03:54:19;101883.94;;;5.93;60.72
59789;BME280;47353;51.614;5.530;2023-04-20T03:56:45;101881.59;;;5.96;59.98
59789;BME280;47353;51.614;5.530;2023-04-20T03:59:10;101878.63;;;5.98;60.61
59789;BME280;47353;51.614;5.530;2023-04-20T04:01:36;101876.06;;;6.03;60.48
59789;BME280;47353;51.614;5.530;2023-04-20T04:04:04;101868.41;;;6.05;60.43
59789;BME280;47353;51.614;5.530;2023-04-20T04:06:29;101857.81;;;6.08;60.72
59789;BME280;47353;51.614;5.530;2023-04-20T04:08:56;101870.91;;;6.13;60.52
59789;BME280;47353;51.614;5.530;2023-04-20T04:11:21;101863.50;;;6.13;60.59
59789;BME280;47353;51.614;5.530;2023-04-20T04:13:48;101865.13;;;6.21;60.24
59789;BME280;47353;51.614;5.530;2023-04-20T04:16:13;101871.41;;;6.28;60.34
59789;BME280;47353;51.614;5.530;2023-04-20T04:18:42;101868.38;;;6.36;60.55
59789;BME280;47353;51.614;5.530;2023-04-20T04:21:08;101862.22;;;6.40;60.69
59789;BME280;47353;51.614;5.530;2023-04-20T04:23:34;101855.81;;;6.46;60.78
59789;BME280;47353;51.614;5.530;2023-04-20T04:26:01;101837.19;;;6.48;60.78
59789;BME280;47353;51.614;5.530;2023-04-20T04:28:27;101844.06;;;6.57;60.57
59789;BME280;47353;51.614;5.530;2023-04-20T04:30:52;101840.03;;;6.60;60.29
59789;BME280;47353;51.614;5.530;2023-04-20T04:33:18;101836.63;;;6.64;60.14
59789;BME280;47353;51.614;5.530;2023-04-20T04:35:44;101840.81;;;6.67;61.05
59789;BME280;47353;51.614;5.530;2023-04-20T04:38:11;101832.09;;;6.70;60.19
59789;BME280;47353;51.614;5.530;2023-04-20T04:40:38;101812.38;;;6.73;60.48
59789;BME280;47353;51.614;5.530;2023-04-20T04:43:03;101829.69;;;6.80;59.95
59789;BME280;47353;51.614;5.530;2023-04-20T04:45:29;101823.94;;;6.82;60.18
59789;BME280;47353;51.614;5.530;2023-04-20T04:47:54;101822.88;;;6.82;59.96
59789;BME280;47353;51.614;5.530;2023-04-20T04:50:21;101812.72;;;6.83;59.65
59789;BME280;47353;51.614;5.530;2023-04-20T04:52:47;101817.53;;;6.88;60.04
59789;BME280;47353;51.614;5.530;2023-04-20T04:55:12;101816.66;;;6.87;59.93
59789;BME280;47353;51.614;5.530;2023-04-20T04:57:38;101815.81;;;6.87;60.15
59789;BME280;47353;51.614;5.530;2023-04-20T05:00:04;101816.91;;;6.86;60.07
59789;BME280;47353;51.614;5.530;2023-04-20T05:02:34;101820.50;;;6.86;60.02
59789;BME280;47353;51.614;5.530;2023-04-20T05:04:59;101817.75;;;6.86;60.32
59789;BME280;47353;51.614;5.530;2023-04-20T05:07:25;101816.66;;;6.87;60.26
59789;BME280;47353;51.614;5.530;2023-04-20T05:09:50;101810.47;;;6.92;59.95
59789;BME280;47353;51.614;5.530;2023-04-20T05:12:16;101816.84;;;6.92;60.45
59789;BME280;47353;51.614;5.530;2023-04-20T05:14:42;101813.00;;;6.93;60.71
59789;BME280;47353;51.614;5.530;2023-04-20T05:17:07;101811.91;;;6.94;60.55
59789;BME280;47353;51.614;5.530;2023-04-20T05:19:33;101812.78;;;6.95;60.50
59789;BME280;47353;51.614;5.530;2023-04-20T05:21:58;101812.31;;;6.98;60.56
59789;BME280;47353;51.614;5.530;2023-04-20T05:24:24;101810.63;;;6.97;61.05
59789;BME280;47353;51.614;5.530;2023-04-20T05:26:49;101807.94;;;7.08;60.31
59789;BME280;47353;51.614;5.530;2023-04-20T05:29:15;101812.63;;;7.08;60.19
59789;BME280;47353;51.614;5.530;2023-04-20T05:31:40;101814.53;;;7.07;60.79
59789;BME280;47353;51.614;5.530;2023-04-20T05:34:06;101809.19;;;7.12;60.52
59789;BME280;47353;51.614;5.530;2023-04-20T05:36:31;101803.91;;;7.11;61.29
59789;BME280;47353;51.614;5.530;2023-04-20T05:38:58;101811.94;;;7.12;60.79
59789;BME280;47353;51.614;5.530;2023-04-20T05:41:23;101804.88;;;7.16;61.00
59789;BME280;47353;51.614;5.530;2023-04-20T05:43:54;101795.09;;;7.20;60.92
59789;BME280;47353;51.614;5.530;2023-04-20T05:46:21;101797.97;;;7.25;60.70
59789;BME280;47353;51.614;5.530;2023-04-20T05:48:46;101797.28;;;7.30;60.61
59789;BME280;47353;51.614;5.530;2023-04-20T05:51:13;101789.47;;;7.27;61.26
59789;BME280;47353;51.614;5.530;2023-04-20T05:53:38;101800.41;;;7.33;60.93
59789;BME280;47353;51.614;5.530;2023-04-20T05:56:04;101801.63;;;7.37;61.09
59789;BME280;47353;51.614;5.530;2023-04-20T05:58:31;101798.78;;;7.44;60.99
59789;BME280;47353;51.614;5.530;2023-04-20T06:00:57;101787.06;;;7.48;61.16
59789;BME280;47353;51.614;5.530;2023-04-20T06:03:23;101788.78;;;7.61;60.45
59789;BME280;47353;51.614;5.530;2023-04-20T06:05:48;101791.03;;;7.82;60.02
59789;BME280;47353;51.614;5.530;2023-04-20T06:08:13;101795.69;;;7.93;59.51
59789;BME280;47353;51.614;5.530;2023-04-20T06:10:39;101785.19;;;8.13;59.42
59789;BME280;47353;51.614;5.530;2023-04-20T06:13:04;101782.72;;;8.23;58.77
59789;BME280;47353;51.614;5.530;2023-04-20T06:15:30;101783.47;;;8.41;59.00
59789;BME280;47353;51.614;5.530;2023-04-20T06:17:56;101791.13;;;8.51;58.61
59789;BME280;47353;51.614;5.530;2023-04-20T06:20:21;101797.00;;;8.55;58.04
59789;BME280;47353;51.614;5.530;2023-04-20T06:22:47;101789.44;;;8.50;57.80
59789;BME280;47353;51.614;5.530;2023-04-20T06:25:12;101790.66;;;8.54;57.94
59789;BME280;47353;51.614;5.530;2023-04-20T06:27:40;101791.38;;;8.50;58.13
59789;BME280;47353;51.614;5.530;2023-04-20T06:30:06;101791.63;;;8.48;57.94
59789;BME280;47353;51.614;5.530;2023-04-20T06:32:31;101782.50;;;8.48;58.07
59789;BME280;47353;51.614;5.530;2023-04-20T06:34:57;101781.53;;;8.54;57.99
59789;BME280;47353;51.614;5.530;2023-04-20T06:37:22;101780.31;;;8.61;58.56
59789;BME280;47353;51.614;5.530;2023-04-20T06:39:52;101770.75;;;8.64;57.76
59789;BME280;47353;51.614;5.530;2023-04-20T06:42:17;101766.28;;;8.74;57.47
59789;BME280;47353;51.614;5.530;2023-04-20T06:44:43;101774.41;;;8.81;56.96
59789;BME280;47353;51.614;5.530;2023-04-20T06:47:08;101775.97;;;8.88;56.63
59789;BME280;47353;51.614;5.530;2023-04-20T06:49:34;101769.59;;;8.88;57.12
59789;BME280;47353;51.614;5.530;2023-04-20T06:52:01;101772.25;;;8.94;56.52
59789;BME280;47353;51.614;5.530;2023-04-20T06:54:27;101767.22;;;8.91;56.13
59789;BME280;47353;51.614;5.530;2023-04-20T06:56:52;101757.34;;;8.95;56.37
59789;BME280;47353;51.614;5.530;2023-04-20T06:59:18;101753.16;;;8.93;56.21
59789;BME280;47353;51.614;5.530;2023-04-20T07:01:43;101760.00;;;8.90;56.08
59789;BME280;47353;51.614;5.530;2023-04-20T07:04:09;101769.13;;;8.91;56.52
59789;BME280;47353;51.614;5.530;2023-04-20T07:06:35;101770.31;;;8.95;56.29
59789;BME280;47353;51.614;5.530;2023-04-20T07:09:00;101771.41;;;8.94;56.75
59789;BME280;47353;51.614;5.530;2023-04-20T07:11:25;101770.22;;;8.90;56.18
59789;BME280;47353;51.614;5.530;2023-04-20T07:13:51;101770.47;;;8.88;56.46
59789;BME280;47353;51.614;5.530;2023-04-20T07:16:16;101780.16;;;8.79;56.96
59789;BME280;47353;51.614;5.530;2023-04-20T07:18:41;101769.78;;;8.70;56.73
59789;BME280;47353;51.614;5.530;2023-04-20T07:21:07;101779.34;;;8.67;56.91
59789;BME280;47353;51.614;5.530;2023-04-20T07:23:33;101786.09;;;8.60;58.22
59789;BME280;47353;51.614;5.530;2023-04-20T07:25:58;101780.56;;;8.60;57.79
59789;BME280;47353;51.614;5.530;2023-04-20T07:28:23;101781.16;;;8.62;58.05
59789;BME280;47353;51.614;5.530;2023-04-20T07:30:49;101779.34;;;8.67;58.68
59789;BME280;47353;51.614;5.530;2023-04-20T07:33:14;101773.72;;;8.74;58.02
59789;BME280;47353;51.614;5.530;2023-04-20T07:35:40;101776.09;;;8.82;57.29
59789;BME280;47353;51.614;5.530;2023-04-20T07:38:05;101758.38;;;9.17;57.26
59789;BME280;47353;51.614;5.530;2023-04-20T07:40:30;101762.44;;;9.87;55.24
59789;BME280;47353;51.614;5.530;2023-04-20T07:42:56;101766.44;;;10.25;54.02
59789;BME280;47353;51.614;5.530;2023-04-20T07:45:21;101770.28;;;10.40;52.36
59789;BME280;47353;51.614;5.530;2023-04-20T07:47:48;101751.28;;;10.65;52.31
59789;BME280;47353;51.614;5.530;2023-04-20T07:50:16;101762.91;;;10.84;53.12
59789;BME280;47353;51.614;5.530;2023-04-20T07:52:41;101769.09;;;11.12;55.79
59789;BME280;47353;51.614;5.530;2023-04-20T07:55:09;101771.41;;;10.99;51.32
59789;BME280;47353;51.614;5.530;2023-04-20T07:57:36;101764.81;;;10.83;52.25
59789;BME280;47353;51.614;5.530;2023-04-20T08:00:02;101765.41;;;10.85;57.62
59789;BME280;47353;51.614;5.530;2023-04-20T08:02:31;101765.59;;;10.79;52.36
59789;BME280;47353;51.614;5.530;2023-04-20T08:04:56;101764.19;;;10.76;55.39
59789;BME280;47353;51.614;5.530;2023-04-20T08:07:22;101761.19;;;10.61;52.80
59789;BME280;47353;51.614;5.530;2023-04-20T08:09:48;101766.16;;;10.43;53.40
59789;BME280;47353;51.614;5.530;2023-04-20T08:12:13;101763.84;;;10.35;53.40
59789;BME280;47353;51.614;5.530;2023-04-20T08:14:39;101765.50;;;10.36;53.50
59789;BME280;47353;51.614;5.530;2023-04-20T08:17:05;101764.25;;;10.43;53.41
59789;BME280;47353;51.614;5.530;2023-04-20T08:19:31;101758.31;;;10.35;54.76
59789;BME280;47353;51.614;5.530;2023-04-20T08:21:56;101769.38;;;10.35;56.68
59789;BME280;47353;51.614;5.530;2023-04-20T08:24:22;101760.13;;;10.46;59.86
59789;BME280;47353;51.614;5.530;2023-04-20T08:26:47;101760.47;;;10.49;54.47
59789;BME280;47353;51.614;5.530;2023-04-20T08:29:14;101748.63;;;10.92;53.07
59789;BME280;47353;51.614;5.530;2023-04-20T08:31:40;101746.69;;;11.40;51.62
59789;BME280;47353;51.614;5.530;2023-04-20T08:34:05;101736.13;;;11.86;49.58
59789;BME280;47353;51.614;5.530;2023-04-20T08:36:30;101742.59;;;12.33;48.60
59789;BME280;47353;51.614;5.530;2023-04-20T08:39:19;101730.84;;;12.62;48.60
59789;BME280;47353;51.614;5.530;2023-04-20T08:41:46;101742.50;;;12.59;47.41
59789;BME280;47353;51.614;5.530;2023-04-20T08:44:12;101744.38;;;12.49;47.90
59789;BME280;47353;51.614;5.530;2023-04-20T08:46:39;101737.63;;;12.35;47.97
59789;BME280;47353;51.614;5.530;2023-04-20T08:49:11;101738.75;;;12.39;49.22
59789;BME280;47353;51.614;5.530;2023-04-20T08:51:38;101737.53;;;12.61;47.36
59789;BME280;47353;51.614;5.530;2023-04-20T08:54:04;101737.44;;;12.51;48.39
59789;BME280;47353;51.614;5.530;2023-04-20T08:56:38;101733.78;;;12.41;47.84
59789;BME280;47353;51.614;5.530;2023-04-20T08:59:04;101734.00;;;11.98;48.38
59789;BME280;47353;51.614;5.530;2023-04-20T09:01:31;101730.81;;;11.84;48.88
59789;BME280;47353;51.614;5.530;2023-04-20T09:04:00;101733.94;;;12.29;50.08
59789;BME280;47353;51.614;5.530;2023-04-20T09:06:25;101725.63;;;13.37;45.93
59789;BME280;47353;51.614;5.530;2023-04-20T09:08:52;101726.03;;;13.86;43.68
59789;BME280;47353;51.614;5.530;2023-04-20T09:11:28;101733.25;;;13.87;43.18
59789;BME280;47353;51.614;5.530;2023-04-20T09:16:23;101733.50;;;14.16;43.52
59789;BME280;47353;51.614;5.530;2023-04-20T09:18:52;101720.44;;;13.96;43.17
59789;BME280;47353;51.614;5.530;2023-04-20T09:21:18;101724.03;;;13.72;43.06
59789;BME280;47353;51.614;5.530;2023-04-20T09:23:55;101724.34;;;14.05;43.63
59789;BME280;47353;51.614;5.530;2023-04-20T09:26:20;101721.56;;;14.00;43.63
59789;BME280;47353;51.614;5.530;2023-04-20T09:28:46;101725.97;;;13.61;43.84
59789;BME280;47353;51.614;5.530;2023-04-20T09:31:21;101713.97;;;13.30;44.49
59789;BME280;47353;51.614;5.530;2023-04-20T09:34:01;101721.19;;;13.31;44.64
59789;BME280;47353;51.614;5.530;2023-04-20T09:36:40;101720.75;;;12.98;45.38
59789;BME280;47353;51.614;5.530;2023-04-20T09:39:13;101718.69;;;12.73;46.04
59789;BME280;47353;51.614;5.530;2023-04-20T09:41:42;101721.09;;;12.55;46.44
59789;BME280;47353;51.614;5.530;2023-04-20T09:44:09;101727.00;;;12.27;46.52
59789;BME280;47353;51.614;5.530;2023-04-20T09:46:36;101732.81;;;12.25;49.40
59789;BME280;47353;51.614;5.530;2023-04-20T09:49:03;101730.16;;;12.04;47.12
59789;BME280;47353;51.614;5.530;2023-04-20T09:51:33;101721.97;;;11.60;48.36
59789;BME280;47353;51.614;5.530;2023-04-20T09:54:01;101719.44;;;11.59;49.27
59789;BME280;47353;51.614;5.530;2023-04-20T09:56:29;101715.75;;;11.48;49.27
59789;BME280;47353;51.614;5.530;2023-04-20T09:58:56;101718.72;;;11.42;49.88
59789;BME280;47353;51.614;5.530;2023-04-20T10:01:22;101706.50;;;11.38;50.65
59789;BME280;47353;51.614;5.530;2023-04-20T10:03:48;101707.53;;;11.32;51.25
59789;BME280;47353;51.614;5.530;2023-04-20T10:06:22;101696.00;;;11.18;51.44
59789;BME280;47353;51.614;5.530;2023-04-20T10:08:48;101708.19;;;11.17;52.30
59789;BME280;47353;51.614;5.530;2023-04-20T10:13:57;101711.50;;;11.14;52.66
59789;BME280;47353;51.614;5.530;2023-04-20T10:16:23;101714.34;;;11.24;52.47
59789;BME280;47353;51.614;5.530;2023-04-20T10:19:03;101707.47;;;11.27;51.78
59789;BME280;47353;51.614;5.530;2023-04-20T10:21:29;101704.25;;;11.35;52.61
59789;BME280;47353;51.614;5.530;2023-04-20T10:23:57;101701.22;;;11.36;51.88
59789;BME280;47353;51.614;5.530;2023-04-20T10:26:37;101701.41;;;11.56;51.73
59789;BME280;47353;51.614;5.530;2023-04-20T10:29:03;101698.81;;;11.71;51.40
59789;BME280;47353;51.614;5.530;2023-04-20T10:31:37;101694.63;;;12.01;50.42
59789;BME280;47353;51.614;5.530;2023-04-20T10:34:04;101690.91;;;12.27;49.69
59789;BME280;47353;51.614;5.530;2023-04-20T10:36:35;101682.09;;;12.35;48.71
59789;BME280;47353;51.614;5.530;2023-04-20T10:41:53;101683.16;;;12.80;47.20
59789;BME280;47353;51.614;5.530;2023-04-20T10:44:19;101674.91;;;12.44;46.82
59789;BME280;47353;51.614;5.530;2023-04-20T10:46:52;101678.59;;;12.13;47.53
59789;BME280;47353;51.614;5.530;2023-04-20T10:49:17;101683.50;;;12.01;48.41
59789;BME280;47353;51.614;5.530;2023-04-20T10:51:47;101682.06;;;11.93;48.91
59789;BME280;47353;51.614;5.530;2023-04-20T10:54:13;101668.28;;;13.06;47.51
59789;BME280;47353;51.614;5.530;2023-04-20T10:56:46;101666.16;;;15.02;43.01
59789;BME280;47353;51.614;5.530;2023-04-20T10:59:14;101665.88;;;15.91;39.08
59789;BME280;47353;51.614;5.530;2023-04-20T11:01:41;101659.09;;;15.69;39.26
59789;BME280;47353;51.614;5.530;2023-04-20T11:04:08;101667.88;;;15.47;39.54
59789;BME280;47353;51.614;5.530;2023-04-20T11:06:35;101655.22;;;15.16;40.03
59789;BME280;47353;51.614;5.530;2023-04-20T11:09:01;101655.22;;;15.65;39.51
59789;BME280;47353;51.614;5.530;2023-04-20T11:11:26;101646.22;;;16.82;37.70
59789;BME280;47353;51.614;5.530;2023-04-20T11:14:08;101641.75;;;17.60;38.03
59789;BME280;47353;51.614;5.530;2023-04-20T11:16:34;101646.72;;;16.84;36.78
59789;BME280;47353;51.614;5.530;2023-04-20T11:19:00;101631.44;;;15.72;37.82
59789;BME280;47353;51.614;5.530;2023-04-20T11:21:40;101651.06;;;15.14;39.83
59789;BME280;47353;51.614;5.530;2023-04-20T11:26:45;101640.25;;;13.33;43.50
59789;BME280;47353;51.614;5.530;2023-04-20T11:29:10;101638.81;;;13.00;43.78
59789;BME280;47353;51.614;5.530;2023-04-20T11:31:36;101632.06;;;12.81;44.35
59789;BME280;47353;51.614;5.530;2023-04-20T11:34:02;101634.84;;;12.81;44.49
59789;BME280;47353;51.614;5.530;2023-04-20T11:36:28;101625.41;;;12.97;43.92
59789;BME280;47353;51.614;5.530;2023-04-20T11:39:06;101625.41;;;12.87;44.39
59789;BME280;47353;51.614;5.530;2023-04-20T11:41:31;101620.91;;;12.71;44.84
59789;BME280;47353;51.614;5.530;2023-04-20T11:43:57;101622.78;;;12.56;45.79
59789;BME280;47353;51.614;5.530;2023-04-20T11:46:22;101618.81;;;12.42;45.53
59789;BME280;47353;51.614;5.530;2023-04-20T11:48:48;101611.69;;;12.09;46.78
59789;BME280;47353;51.614;5.530;2023-04-20T11:51:14;101627.13;;;11.90;47.84
59789;BME280;47353;51.614;5.530;2023-04-20T11:53:39;101625.38;;;11.79;48.13
59789;BME280;47353;51.614;5.530;2023-04-20T11:56:06;101622.25;;;11.70;50.33
59789;BME280;47353;51.614;5.530;2023-04-20T11:58:31;101643.75;;;11.27;55.14
59789;BME280;47353;51.614;5.530;2023-04-20T12:00:57;101641.16;;;10.94;57.87
59789;BME280;47353;51.614;5.530;2023-04-20T12:03:22;101633.63;;;10.89;57.56
59789;BME280;47353;51.614;5.530;2023-04-20T12:05:48;101629.31;;;10.55;59.58
59789;BME280;47353;51.614;5.530;2023-04-20T12:08:13;101623.75;;;10.50;60.62
59789;BME280;47353;51.614;5.530;2023-04-20T12:10:41;101631.03;;;10.56;60.74
59789;BME280;47353;51.614;5.530;2023-04-20T12:13:06;101628.97;;;10.47;61.57
59789;BME280;47353;51.614;5.530;2023-04-20T12:15:32;101637.13;;;10.58;60.61
59789;BME280;47353;51.614;5.530;2023-04-20T12:17:57;101630.03;;;10.46;62.04
59789;BME280;47353;51.614;5.530;2023-04-20T12:20:23;101647.91;;;10.38;64.11
59789;BME280;47353;51.614;5.530;2023-04-20T12:22:48;101640.09;;;10.52;64.86
59789;BME280;47353;51.614;5.530;2023-04-20T12:25:13;101625.50;;;10.83;68.12
59789;BME280;47353;51.614;5.530;2023-04-20T12:27:39;101617.53;;;11.39;64.59
59789;BME280;47353;51.614;5.530;2023-04-20T12:30:05;101609.91;;;12.35;62.84
59789;BME280;47353;51.614;5.530;2023-04-20T12:32:33;101600.88;;;14.60;57.01
59789;BME280;47353;51.614;5.530;2023-04-20T12:34:58;101601.13;;;16.41;50.45
59789;BME280;47353;51.614;5.530;2023-04-20T12:37:24;101607.06;;;19.02;45.44
59789;BME280;47353;51.614;5.530;2023-04-20T12:39:49;101595.94;;;20.90;38.27
59789;BME280;47353;51.614;5.530;2023-04-20T12:42:15;101611.50;;;22.79;35.54
59789;BME280;47353;51.614;5.530;2023-04-20T12:44:40;101612.38;;;24.03;31.67
59789;BME280;47353;51.614;5.530;2023-04-20T12:47:06;101606.41;;;25.09;29.38
59789;BME280;47353;51.614;5.530;2023-04-20T12:49:31;101604.38;;;25.22;27.39
59789;BME280;47353;51.614;5.530;2023-04-20T12:51:57;101620.75;;;22.88;28.60
59789;BME280;47353;51.614;5.530;2023-04-20T12:54:22;101601.47;;;19.95;32.51
59789;BME280;47353;51.614;5.530;2023-04-20T12:56:47;101589.81;;;18.00;35.44
59789;BME280;47353;51.614;5.530;2023-04-20T12:59:13;101598.38;;;16.84;38.11
59789;BME280;47353;51.614;5.530;2023-04-20T13:01:39;101594.16;;;16.39;40.10